createdAt,value
2023-08-29T00:00:10.608Z,13.72
2023-08-29T00:02:41.983Z,13.69
2023-08-29T00:05:10.223Z,13.63
2023-08-29T00:07:37.174Z,13.57
2023-08-29T00:10:04.559Z,13.45
2023-08-29T00:12:33.172Z,13.33
2023-08-29T00:15:05.280Z,13.31
2023-08-29T00:17:32.254Z,13.32
2023-08-29T00:19:58.753Z,13.31
2023-08-29T00:22:25.256Z,13.27
2023-08-29T00:24:53.526Z,13.28
2023-08-29T00:27:22.633Z,13.26
2023-08-29T00:29:49.378Z,13.23
2023-08-29T00:32:16.004Z,13.21
2023-08-29T00:34:42.740Z,13.20
2023-08-29T00:37:09.318Z,13.20
2023-08-29T00:39:35.844Z,13.16
2023-08-29T00:42:02.561Z,13.15
2023-08-29T00:44:29.082Z,13.12
2023-08-29T00:46:56.032Z,13.10
2023-08-29T00:49:28.068Z,13.08
2023-08-29T00:51:55.220Z,13.08
2023-08-29T00:54:22.634Z,13.06
2023-08-29T00:56:49.772Z,13.05
2023-08-29T00:59:16.985Z,13.03
2023-08-29T01:01:45.006Z,13.02
2023-08-29T01:04:11.585Z,12.99
2023-08-29T01:06:38.980Z,12.96
2023-08-29T01:09:08.471Z,12.91
2023-08-29T01:11:58.211Z,12.89
2023-08-29T01:15:04.638Z,12.85
2023-08-29T01:17:41.001Z,12.84
2023-08-29T01:20:09.534Z,12.83
2023-08-29T01:22:45.433Z,12.81
2023-08-29T01:25:31.528Z,12.78
2023-08-29T01:27:58.262Z,12.76
2023-08-29T01:30:25.269Z,12.72
2023-08-29T01:32:52.693Z,12.71
2023-08-29T01:35:19.451Z,12.69
2023-08-29T01:37:45.922Z,12.63
2023-08-29T01:40:12.494Z,12.58
2023-08-29T01:42:39.061Z,12.56
2023-08-29T01:45:06.535Z,12.53
2023-08-29T01:47:33.193Z,12.50
2023-08-29T01:50:02.242Z,12.48
2023-08-29T01:52:28.837Z,12.45
2023-08-29T01:54:55.429Z,12.42
2023-08-29T01:57:23.329Z,12.40
2023-08-29T01:59:50.952Z,12.39
2023-08-29T02:02:18.926Z,12.36
2023-08-29T02:04:45.431Z,12.37
2023-08-29T02:07:11.950Z,12.28
2023-08-29T02:09:38.476Z,12.23
2023-08-29T02:12:05.169Z,12.15
2023-08-29T02:14:33.040Z,12.11
2023-08-29T02:16:59.589Z,12.07
2023-08-29T02:19:27.417Z,12.03
2023-08-29T02:21:54.025Z,12.04
2023-08-29T02:24:20.587Z,12.03
2023-08-29T02:26:47.103Z,12.01
2023-08-29T02:29:13.643Z,11.99
2023-08-29T02:31:40.169Z,11.98
2023-08-29T02:34:06.709Z,11.98
2023-08-29T02:36:33.200Z,11.97
2023-08-29T02:38:59.685Z,11.98
2023-08-29T02:41:26.387Z,11.94
2023-08-29T02:43:52.822Z,11.93
2023-08-29T02:46:19.370Z,11.90
2023-08-29T02:48:45.879Z,11.86
2023-08-29T02:51:12.424Z,11.79
2023-08-29T02:53:38.902Z,11.79
2023-08-29T02:56:05.422Z,11.81
2023-08-29T02:58:31.957Z,11.73
2023-08-29T03:01:00.138Z,11.65
2023-08-29T03:03:27.634Z,11.62
2023-08-29T03:05:58.640Z,11.57
2023-08-29T03:08:26.383Z,11.56
2023-08-29T03:10:53.972Z,11.56
2023-08-29T03:13:20.969Z,11.55
2023-08-29T03:15:47.960Z,11.56
2023-08-29T03:18:15.384Z,11.57
2023-08-29T03:20:42.786Z,11.56
2023-08-29T03:23:09.324Z,11.53
2023-08-29T03:25:35.932Z,11.54
2023-08-29T03:28:02.432Z,11.54
2023-08-29T03:30:29.637Z,11.49
2023-08-29T03:32:56.252Z,11.48
2023-08-29T03:35:24.108Z,11.45
2023-08-29T03:37:50.609Z,11.43
2023-08-29T03:40:17.165Z,11.39
2023-08-29T03:42:43.772Z,11.37
2023-08-29T03:45:10.437Z,11.37
2023-08-29T03:47:40.194Z,11.36
2023-08-29T03:50:08.009Z,11.38
2023-08-29T03:52:34.517Z,11.39
2023-08-29T03:55:01.122Z,11.39
2023-08-29T03:57:28.268Z,11.36
2023-08-29T03:59:54.928Z,11.33
2023-08-29T04:02:21.922Z,11.32
2023-08-29T04:04:53.516Z,11.30
2023-08-29T04:07:20.214Z,11.28
2023-08-29T04:09:46.798Z,11.26
2023-08-29T04:12:13.390Z,11.24
2023-08-29T04:14:39.961Z,11.24
2023-08-29T04:17:06.563Z,11.24
2023-08-29T04:19:33.415Z,11.23
2023-08-29T04:22:00.052Z,11.23
2023-08-29T04:24:26.572Z,11.22
2023-08-29T04:26:54.051Z,11.24
2023-08-29T04:29:20.573Z,11.25
2023-08-29T04:31:48.129Z,11.24
2023-08-29T04:34:14.996Z,11.22
2023-08-29T04:36:41.528Z,11.22
2023-08-29T04:39:08.017Z,11.23
2023-08-29T04:41:34.519Z,11.22
2023-08-29T04:44:01.032Z,11.21
2023-08-29T04:46:27.872Z,11.19
2023-08-29T04:48:54.589Z,11.18
2023-08-29T04:51:21.175Z,11.16
2023-08-29T04:53:48.294Z,11.18
2023-08-29T04:56:14.839Z,11.16
2023-08-29T04:58:41.971Z,11.18
2023-08-29T05:01:08.566Z,11.16
2023-08-29T05:03:35.227Z,11.16
2023-08-29T05:06:01.832Z,11.16
2023-08-29T05:08:28.371Z,11.15
2023-08-29T05:10:54.913Z,11.16
2023-08-29T05:13:21.454Z,11.15
2023-08-29T05:15:48.074Z,11.14
2023-08-29T05:18:14.676Z,11.09
2023-08-29T05:20:41.253Z,11.06
2023-08-29T05:23:07.771Z,11.04
2023-08-29T05:25:34.300Z,10.98
2023-08-29T05:28:01.002Z,10.97
2023-08-29T05:30:27.568Z,10.98
2023-08-29T05:32:54.609Z,11.00
2023-08-29T05:35:21.376Z,11.06
2023-08-29T05:37:47.947Z,11.11
2023-08-29T05:40:14.589Z,11.13
2023-08-29T05:42:41.102Z,11.19
2023-08-29T05:45:08.178Z,11.25
2023-08-29T05:47:34.716Z,11.29
2023-08-29T05:50:01.398Z,11.34
2023-08-29T05:52:28.167Z,11.45
2023-08-29T05:54:54.720Z,11.57
2023-08-29T05:57:21.378Z,11.67
2023-08-29T05:59:47.923Z,11.73
2023-08-29T06:02:14.463Z,11.78
2023-08-29T06:04:41.021Z,11.84
2023-08-29T06:07:08.546Z,11.93
2023-08-29T06:09:34.997Z,12.00
2023-08-29T06:12:01.597Z,12.11
2023-08-29T06:14:28.130Z,12.22
2023-08-29T06:16:54.699Z,12.28
2023-08-29T06:19:21.227Z,12.39
2023-08-29T06:21:47.785Z,12.47
2023-08-29T06:24:15.742Z,12.58
2023-08-29T06:26:42.513Z,12.68
2023-08-29T06:29:09.131Z,12.74
2023-08-29T06:31:35.615Z,12.81
2023-08-29T06:34:02.153Z,12.87
2023-08-29T06:36:28.816Z,12.93
2023-08-29T06:38:55.261Z,13.01
2023-08-29T06:41:21.865Z,13.04
2023-08-29T06:43:48.382Z,13.10
2023-08-29T06:46:15.414Z,13.14
2023-08-29T06:48:44.669Z,13.17
2023-08-29T06:51:11.367Z,13.19
2023-08-29T06:53:37.958Z,13.24
2023-08-29T06:56:05.347Z,13.31
2023-08-29T06:58:32.070Z,13.33
2023-08-29T07:00:58.668Z,13.37
2023-08-29T07:03:25.308Z,13.40
2023-08-29T07:05:51.980Z,13.41
2023-08-29T07:08:18.613Z,13.43
2023-08-29T07:10:45.201Z,13.48
2023-08-29T07:13:11.782Z,13.50
2023-08-29T07:15:38.307Z,13.57
2023-08-29T07:18:07.120Z,13.65
2023-08-29T07:20:34.891Z,13.72
2023-08-29T07:23:01.573Z,13.81
2023-08-29T07:25:43.448Z,13.92
2023-08-29T07:28:14.472Z,14.02
2023-08-29T07:30:44.356Z,14.14
2023-08-29T07:33:12.276Z,14.22
2023-08-29T07:35:40.346Z,14.27
2023-08-29T07:38:07.649Z,14.36
2023-08-29T07:40:35.019Z,14.44
2023-08-29T07:43:06.525Z,14.54
2023-08-29T07:45:33.893Z,14.66
2023-08-29T07:48:00.740Z,14.70
2023-08-29T07:50:28.493Z,14.75
2023-08-29T07:52:55.709Z,14.79
2023-08-29T07:55:22.621Z,14.81
2023-08-29T07:57:49.927Z,14.87
2023-08-29T08:00:18.065Z,14.92
2023-08-29T08:02:44.908Z,14.97
2023-08-29T08:05:14.549Z,15.04
2023-08-29T08:07:42.599Z,15.09
2023-08-29T08:10:09.731Z,15.20
2023-08-29T08:12:36.662Z,15.25
2023-08-29T08:15:05.501Z,15.36
2023-08-29T08:17:33.290Z,15.45
2023-08-29T08:19:59.834Z,15.55
2023-08-29T08:22:26.367Z,15.72
2023-08-29T08:24:52.915Z,15.82
2023-08-29T08:27:20.148Z,15.92
2023-08-29T08:29:46.612Z,16.02
2023-08-29T08:32:13.118Z,16.09
2023-08-29T08:34:39.586Z,16.16
2023-08-29T08:37:06.077Z,16.21
2023-08-29T08:39:32.938Z,16.28
2023-08-29T08:41:59.486Z,16.31
2023-08-29T08:44:26.350Z,16.39
2023-08-29T08:46:53.588Z,16.45
2023-08-29T08:49:20.439Z,16.53
2023-08-29T08:51:49.828Z,16.64
2023-08-29T08:54:16.545Z,16.73
2023-08-29T08:56:43.752Z,16.81
2023-08-29T08:59:10.672Z,16.92
2023-08-29T09:01:38.501Z,17.00
2023-08-29T09:04:05.399Z,17.06
2023-08-29T09:06:32.156Z,17.11
2023-08-29T09:09:18.685Z,17.21
2023-08-29T09:11:51.127Z,17.27
2023-08-29T09:14:17.649Z,17.43
2023-08-29T09:16:44.954Z,17.52
2023-08-29T09:19:11.421Z,17.54
2023-08-29T09:21:43.042Z,17.58
2023-08-29T09:24:13.856Z,17.66
2023-08-29T09:26:41.645Z,17.76
2023-08-29T09:29:18.912Z,17.80
2023-08-29T09:31:49.093Z,17.85
2023-08-29T09:34:30.244Z,17.80
2023-08-29T09:36:58.163Z,17.80
2023-08-29T09:39:25.099Z,17.82
2023-08-29T09:42:03.663Z,17.88
2023-08-29T09:44:34.697Z,17.91
2023-08-29T09:47:01.595Z,17.94
2023-08-29T09:49:44.822Z,17.95
2023-08-29T09:52:11.440Z,18.01
2023-08-29T09:54:49.584Z,18.05
2023-08-29T09:57:20.642Z,18.10
2023-08-29T09:59:47.972Z,18.16
2023-08-29T10:02:15.796Z,18.25
2023-08-29T10:04:58.237Z,18.29
2023-08-29T10:07:40.882Z,18.34
2023-08-29T10:10:09.141Z,18.42
2023-08-29T10:12:36.276Z,18.50
2023-08-29T10:15:05.225Z,18.54
2023-08-29T10:17:33.853Z,18.60
2023-08-29T10:20:01.024Z,18.76
2023-08-29T10:22:31.080Z,18.83
2023-08-29T10:25:01.957Z,18.88
2023-08-29T10:27:28.678Z,18.86
2023-08-29T10:29:56.483Z,18.89
2023-08-29T10:32:26.668Z,19.05
2023-08-29T10:34:54.255Z,19.23
2023-08-29T10:37:22.355Z,19.31
2023-08-29T10:39:52.170Z,19.37
2023-08-29T10:42:19.071Z,19.47
2023-08-29T10:44:46.279Z,19.55
2023-08-29T10:47:32.021Z,19.60
2023-08-29T10:50:00.742Z,19.60
2023-08-29T10:52:38.482Z,19.69
2023-08-29T10:55:10.047Z,19.70
2023-08-29T10:57:37.125Z,19.75
2023-08-29T11:00:16.850Z,19.82
2023-08-29T11:02:44.445Z,19.87
2023-08-29T11:05:13.026Z,19.92
2023-08-29T11:07:40.101Z,19.92
2023-08-29T11:10:13.961Z,19.99
2023-08-29T11:13:10.157Z,19.98
2023-08-29T11:15:48.703Z,20.17
2023-08-29T11:18:22.168Z,20.30
2023-08-29T11:20:48.881Z,20.38
2023-08-29T11:23:15.401Z,20.39
2023-08-29T11:25:41.984Z,20.32
2023-08-29T11:28:08.751Z,20.30
2023-08-29T11:30:43.899Z,20.24
2023-08-29T11:33:11.163Z,20.29
2023-08-29T11:35:37.688Z,20.21
2023-08-29T11:38:06.028Z,20.22
2023-08-29T11:40:41.778Z,20.24
2023-08-29T11:44:12.486Z,20.27
2023-08-29T11:46:08.538Z,20.34
2023-08-29T11:48:35.649Z,20.24
2023-08-29T11:51:08.825Z,20.26
2023-08-29T11:53:37.828Z,20.41
2023-08-29T11:56:06.326Z,20.49
2023-08-29T11:58:34.953Z,20.42
2023-08-29T12:01:02.765Z,20.40
2023-08-29T12:03:29.448Z,20.38
2023-08-29T12:05:58.364Z,20.39
2023-08-29T12:08:38.694Z,20.36
2023-08-29T12:11:07.793Z,20.33
2023-08-29T12:13:38.093Z,20.35
2023-08-29T12:16:13.846Z,20.35
2023-08-29T12:18:40.963Z,20.36
2023-08-29T12:21:18.212Z,20.34
2023-08-29T12:23:46.387Z,20.34
2023-08-29T12:26:15.992Z,20.40
2023-08-29T12:28:42.581Z,20.48
2023-08-29T12:31:09.542Z,20.50
2023-08-29T12:33:37.049Z,20.59
2023-08-29T12:36:04.305Z,20.62
2023-08-29T12:38:31.869Z,20.69
2023-08-29T12:40:58.775Z,20.77
2023-08-29T12:43:25.757Z,20.90
2023-08-29T12:45:59.448Z,21.01
2023-08-29T12:48:26.915Z,21.14
2023-08-29T12:50:53.554Z,21.18
2023-08-29T12:53:20.094Z,21.63
2023-08-29T12:55:46.759Z,21.87
2023-08-29T12:58:14.071Z,21.93
2023-08-29T13:00:42.814Z,22.25
2023-08-29T13:03:09.879Z,22.20
2023-08-29T13:05:36.779Z,22.31
2023-08-29T13:08:04.729Z,22.11
2023-08-29T13:10:32.067Z,22.14
2023-08-29T13:12:58.690Z,22.11
2023-08-29T13:15:33.794Z,22.50
2023-08-29T13:18:07.790Z,22.61
2023-08-29T13:20:35.178Z,22.53
2023-08-29T13:23:04.212Z,22.21
2023-08-29T13:25:30.898Z,22.06
2023-08-29T13:27:58.859Z,21.98
2023-08-29T13:30:25.674Z,21.94
2023-08-29T13:32:52.524Z,21.92
2023-08-29T13:35:20.265Z,21.93
2023-08-29T13:37:47.273Z,21.79
2023-08-29T13:40:14.499Z,21.70
2023-08-29T13:42:41.200Z,21.51
2023-08-29T13:45:08.606Z,21.38
2023-08-29T13:47:35.190Z,21.35
2023-08-29T13:50:01.819Z,21.22
2023-08-29T13:52:28.333Z,21.02
2023-08-29T13:54:54.922Z,20.97
2023-08-29T13:57:21.498Z,20.91
2023-08-29T13:59:48.067Z,20.80
2023-08-29T14:02:14.829Z,20.69
2023-08-29T14:04:41.389Z,20.63
2023-08-29T14:07:07.898Z,20.59
2023-08-29T14:09:34.438Z,20.53
2023-08-29T14:12:01.045Z,20.43
2023-08-29T14:14:27.643Z,20.36
2023-08-29T14:16:54.157Z,20.26
2023-08-29T14:19:21.762Z,20.20
2023-08-29T14:21:49.338Z,20.15
2023-08-29T14:24:16.391Z,20.02
2023-08-29T14:26:43.177Z,19.89
2023-08-29T14:29:09.784Z,19.75
2023-08-29T14:31:36.759Z,19.66
2023-08-29T14:34:03.394Z,19.49
2023-08-29T14:36:33.282Z,19.27
2023-08-29T14:39:01.761Z,19.17
2023-08-29T14:41:28.647Z,19.16
2023-08-29T14:43:55.976Z,19.07
2023-08-29T14:46:22.675Z,19.02
2023-08-29T14:48:49.319Z,18.94
2023-08-29T14:51:15.883Z,18.86
2023-08-29T14:53:42.368Z,18.79
2023-08-29T14:56:09.091Z,18.69
2023-08-29T14:58:35.673Z,18.70
2023-08-29T15:01:02.491Z,18.67
2023-08-29T15:03:29.264Z,18.64
2023-08-29T15:05:57.596Z,18.65
2023-08-29T15:08:26.889Z,18.65
2023-08-29T15:10:54.452Z,18.65
2023-08-29T15:13:22.412Z,18.64
2023-08-29T15:15:49.136Z,18.61
2023-08-29T15:18:17.262Z,18.58
2023-08-29T15:20:44.270Z,18.58
2023-08-29T15:23:11.972Z,18.60
2023-08-29T15:25:38.582Z,18.57
2023-08-29T15:28:05.872Z,18.58
2023-08-29T15:30:33.355Z,18.55
2023-08-29T15:33:00.049Z,18.54
2023-08-29T15:35:26.675Z,18.49
2023-08-29T15:37:53.294Z,18.47
2023-08-29T15:40:19.946Z,18.46
2023-08-29T15:42:47.818Z,18.44
2023-08-29T15:45:14.437Z,18.44
2023-08-29T15:47:41.250Z,18.46
2023-08-29T15:50:08.381Z,18.46
2023-08-29T15:52:34.957Z,18.44
2023-08-29T15:55:01.499Z,18.46
2023-08-29T15:57:28.102Z,18.50
2023-08-29T15:59:54.634Z,18.54
2023-08-29T16:02:21.109Z,18.55
2023-08-29T16:04:47.603Z,18.54
2023-08-29T16:07:14.175Z,18.56
2023-08-29T16:09:40.769Z,18.61
2023-08-29T16:12:07.445Z,18.63
2023-08-29T16:14:33.970Z,18.65
2023-08-29T16:17:02.579Z,18.68
2023-08-29T16:19:29.548Z,18.70
2023-08-29T16:21:56.094Z,18.73
2023-08-29T16:24:22.670Z,18.77
2023-08-29T16:26:49.517Z,18.86
2023-08-29T16:29:17.136Z,18.96
2023-08-29T16:31:44.268Z,19.03
2023-08-29T16:34:10.773Z,19.12
2023-08-29T16:36:37.361Z,19.23
2023-08-29T16:39:03.920Z,19.28
2023-08-29T16:41:30.450Z,19.30
2023-08-29T16:43:56.981Z,19.33
2023-08-29T16:46:23.554Z,19.36
2023-08-29T16:48:50.132Z,19.37
2023-08-29T16:51:16.638Z,19.33
2023-08-29T16:53:43.166Z,19.19
2023-08-29T16:56:10.058Z,19.18
2023-08-29T16:58:36.637Z,19.16
2023-08-29T17:01:03.240Z,19.14
2023-08-29T17:03:29.988Z,19.08
2023-08-29T17:05:56.803Z,19.02
2023-08-29T17:08:24.435Z,18.98
2023-08-29T17:10:51.063Z,18.94
2023-08-29T17:13:17.661Z,18.89
2023-08-29T17:15:44.859Z,18.84
2023-08-29T17:18:12.081Z,18.81
2023-08-29T17:20:38.969Z,18.77
2023-08-29T17:23:05.564Z,18.73
2023-08-29T17:25:32.539Z,18.68
2023-08-29T17:27:59.792Z,18.62
2023-08-29T17:30:26.655Z,18.54
2023-08-29T17:32:53.165Z,18.46
2023-08-29T17:35:19.865Z,18.39
2023-08-29T17:37:46.425Z,18.33
2023-08-29T17:40:13.108Z,18.30
2023-08-29T17:42:40.577Z,18.23
2023-08-29T17:45:10.804Z,18.17
2023-08-29T17:47:38.681Z,18.09
2023-08-29T17:50:06.684Z,18.02
2023-08-29T17:52:33.130Z,17.97
2023-08-29T17:54:59.686Z,17.93
2023-08-29T17:57:26.386Z,17.84
2023-08-29T17:59:55.638Z,17.75
2023-08-29T18:02:23.039Z,17.71
2023-08-29T18:04:50.344Z,17.68
2023-08-29T18:07:18.131Z,17.63
2023-08-29T18:10:08.155Z,17.55
2023-08-29T18:12:35.263Z,17.47
2023-08-29T18:15:01.946Z,17.40
2023-08-29T18:17:28.635Z,17.33
2023-08-29T18:19:58.097Z,17.24
2023-08-29T18:22:25.676Z,17.18
2023-08-29T18:24:52.695Z,17.11
2023-08-29T18:27:23.186Z,17.05
2023-08-29T18:29:49.977Z,16.97
2023-08-29T18:32:16.770Z,16.89
2023-08-29T18:34:46.385Z,16.83
2023-08-29T18:37:12.904Z,16.77
2023-08-29T18:39:39.444Z,16.72
2023-08-29T18:42:08.953Z,16.63
2023-08-29T18:44:37.282Z,16.56
2023-08-29T18:47:04.980Z,16.56
2023-08-29T18:49:36.569Z,16.51
2023-08-29T18:52:04.357Z,16.47
2023-08-29T18:54:33.816Z,16.43
2023-08-29T18:57:00.341Z,16.37
2023-08-29T18:59:26.947Z,16.34
2023-08-29T19:01:53.476Z,16.28
2023-08-29T19:04:19.958Z,16.21
2023-08-29T19:06:48.611Z,16.13
2023-08-29T19:09:15.224Z,16.06
2023-08-29T19:11:41.773Z,15.99
2023-08-29T19:14:08.480Z,15.89
2023-08-29T19:16:35.242Z,15.83
2023-08-29T19:19:01.815Z,15.77
2023-08-29T19:21:28.389Z,15.68
2023-08-29T19:23:56.140Z,15.62
2023-08-29T19:26:24.326Z,15.58
2023-08-29T19:28:50.861Z,15.53
2023-08-29T19:31:17.390Z,15.49
2023-08-29T19:33:43.918Z,15.43
2023-08-29T19:36:15.748Z,15.36
2023-08-29T19:38:43.850Z,15.32
2023-08-29T19:41:12.618Z,15.27
2023-08-29T19:43:39.210Z,15.22
2023-08-29T19:46:05.919Z,15.18
2023-08-29T19:48:32.631Z,15.12
2023-08-29T19:50:59.376Z,15.08
2023-08-29T19:53:26.208Z,15.03
2023-08-29T19:55:54.744Z,14.97
2023-08-29T19:58:22.654Z,14.90
2023-08-29T20:00:51.386Z,14.85
2023-08-29T20:03:18.971Z,14.80
2023-08-29T20:05:45.933Z,14.76
2023-08-29T20:08:15.313Z,14.70
2023-08-29T20:10:44.161Z,14.65
2023-08-29T20:13:10.825Z,14.59
2023-08-29T20:15:42.034Z,14.54
2023-08-29T20:18:09.022Z,14.50
2023-08-29T20:20:35.809Z,14.50
2023-08-29T20:23:03.292Z,14.48
2023-08-29T20:25:29.935Z,14.44
2023-08-29T20:27:56.491Z,14.39
2023-08-29T20:30:24.944Z,14.37
2023-08-29T20:32:52.557Z,14.36
2023-08-29T20:35:19.604Z,14.32
2023-08-29T20:37:46.281Z,14.30
2023-08-29T20:40:13.156Z,14.27
2023-08-29T20:42:39.922Z,14.24
2023-08-29T20:45:08.072Z,14.24
2023-08-29T20:47:34.946Z,14.17
2023-08-29T20:50:02.242Z,14.13
2023-08-29T20:52:28.875Z,14.12
2023-08-29T20:54:55.580Z,14.10
2023-08-29T20:57:22.088Z,14.05
2023-08-29T20:59:48.677Z,13.99
2023-08-29T21:02:15.207Z,13.94
2023-08-29T21:04:41.729Z,13.91
2023-08-29T21:07:08.700Z,13.88
2023-08-29T21:09:35.209Z,13.86
2023-08-29T21:12:01.780Z,13.85
2023-08-29T21:14:28.266Z,13.80
2023-08-29T21:16:54.792Z,13.80
2023-08-29T21:19:21.365Z,13.80
2023-08-29T21:21:48.867Z,13.81
2023-08-29T21:24:15.427Z,13.81
2023-08-29T21:26:41.965Z,13.78
2023-08-29T21:29:09.023Z,13.76
2023-08-29T21:31:35.605Z,13.71
2023-08-29T21:34:02.199Z,13.69
2023-08-29T21:36:28.719Z,13.67
2023-08-29T21:38:55.347Z,13.68
2023-08-29T21:41:21.998Z,13.70
2023-08-29T21:43:48.483Z,13.67
2023-08-29T21:46:14.959Z,13.66
2023-08-29T21:48:41.497Z,13.66
2023-08-29T21:51:13.138Z,13.65
2023-08-29T21:53:39.861Z,13.64
2023-08-29T21:56:10.198Z,13.63
2023-08-29T21:58:36.775Z,13.65
2023-08-29T22:01:03.399Z,13.62
2023-08-29T22:03:30.145Z,13.59
2023-08-29T22:05:56.773Z,13.56
2023-08-29T22:08:23.359Z,13.54
2023-08-29T22:10:49.926Z,13.53
2023-08-29T22:13:16.530Z,13.50
2023-08-29T22:15:43.128Z,13.46
2023-08-29T22:18:10.328Z,13.45
2023-08-29T22:20:37.328Z,13.45
2023-08-29T22:23:04.406Z,13.47
2023-08-29T22:25:30.861Z,13.49
2023-08-29T22:27:57.476Z,13.47
2023-08-29T22:30:25.517Z,13.45
2023-08-29T22:32:55.677Z,13.41
2023-08-29T22:35:22.324Z,13.44
2023-08-29T22:37:49.541Z,13.45
2023-08-29T22:40:16.478Z,13.51
2023-08-29T22:42:44.022Z,13.55
2023-08-29T22:45:10.985Z,13.56
2023-08-29T22:47:37.590Z,13.56
2023-08-29T22:50:04.522Z,13.57
2023-08-29T22:52:31.112Z,13.58
2023-08-29T22:54:57.626Z,13.57
2023-08-29T22:57:24.151Z,13.57
2023-08-29T22:59:50.692Z,13.60
2023-08-29T23:02:17.292Z,13.59
2023-08-29T23:04:43.852Z,13.56
2023-08-29T23:07:10.405Z,13.54
2023-08-29T23:09:37.510Z,13.56
2023-08-29T23:12:05.045Z,13.59
2023-08-29T23:14:31.787Z,13.59
2023-08-29T23:16:58.480Z,13.59
2023-08-29T23:19:25.455Z,13.59
2023-08-29T23:21:52.840Z,13.59
2023-08-29T23:24:19.709Z,13.58
2023-08-29T23:26:46.400Z,13.47
2023-08-29T23:29:13.236Z,13.36
2023-08-29T23:31:40.994Z,13.29
2023-08-29T23:34:07.968Z,13.21
2023-08-29T23:36:34.899Z,13.14
2023-08-29T23:39:02.066Z,13.11
2023-08-29T23:41:28.736Z,13.10
2023-08-29T23:43:55.358Z,13.11
2023-08-29T23:46:22.335Z,13.11
2023-08-29T23:48:49.076Z,13.07
2023-08-29T23:51:15.911Z,13.04
2023-08-29T23:53:42.613Z,13.00
2023-08-29T23:56:09.203Z,12.96
2023-08-29T23:58:35.737Z,12.92
